Wetterdaten: aktuell Sonntag, 05.12.2021 10:00
Datum Zeit Temp. A. Feuchte A. Luftdruck Regen Wind Richtung Richtung Taupunkt Windchill Windben
05.12.2021 10:00 1,4 C 90 % 1006,9 hPa 0,0 l/m 0,0 km/h (0 Bft) S-SW 202 -0,1 C 1,4 C 1,6 km/h (1 Bft)
05.12.2021 10:00 1,4 C 90 % 1006,9 hPa 0,0 l/m 0,0 km/h (0 Bft) S-SW 202 -0,1 C 1,4 C 1,6 km/h (1 Bft)
05.12.2021 08:00 0,6 C 90 % 1006,8 hPa 0,0 l/m 0,0 km/h (0 Bft) S-SW 202 -0,8 C 0,6 C 1,6 km/h (1 Bft)
05.12.2021 08:00 0,6 C 90 % 1006,8 hPa 0,0 l/m 0,0 km/h (0 Bft) S-SW 202 -0,8 C 0,6 C 1,6 km/h (1 Bft)
05.12.2021 06:00 0,8 C 89 % 1006,5 hPa 0,2 l/m 0,0 km/h (0 Bft) W-SW 247 -0,8 C 0,8 C 1,6 km/h (1 Bft)
05.12.2021 06:00 0,8 C 89 % 1006,5 hPa 0,0 l/m 0,0 km/h (0 Bft) W-SW 247 -0,8 C 0,8 C 1,6 km/h (1 Bft)
05.12.2021 04:00 1,7 C 89 % 1006,8 hPa 0,2 l/m 0,0 km/h (0 Bft) W-SW 247 0,1 C 1,7 C 3,2 km/h (1 Bft)
05.12.2021 04:00 1,7 C 89 % 1006,8 hPa 0,0 l/m 0,0 km/h (0 Bft) W-SW 247 0,1 C 1,7 C 3,2 km/h (1 Bft)
05.12.2021 02:00 2,6 C 88 % 1006,6 hPa 1,4 l/m 1,6 km/h (1 Bft) W 270 0,8 C 2,6 C 11,3 km/h (2 Bft)
05.12.2021 02:00 2,6 C 88 % 1006,6 hPa 0,0 l/m 1,6 km/h (1 Bft) W 270 0,8 C 2,6 C 11,3 km/h (2 Bft)
05.12.2021 00:00 5,1 C 85 % 1004,5 hPa 0,0 l/m 0,0 km/h (0 Bft) W 270 2,8 C 5,1 C 8,0 km/h (2 Bft)
05.12.2021 00:00 5,1 C 85 % 1004,5 hPa 0,0 l/m 0,0 km/h (0 Bft) W 270 2,8 C 5,1 C 8,0 km/h (2 Bft)
04.12.2021 22:00 5,9 C 84 % 1002,6 hPa 0,0 l/m 0,0 km/h (0 Bft) W-SW 247 3,4 C 5,9 C 8,0 km/h (2 Bft)
04.12.2021 22:00 5,9 C 84 % 1002,6 hPa 0,0 l/m 0,0 km/h (0 Bft) W-SW 247 3,4 C 5,9 C 8,0 km/h (2 Bft)
04.12.2021 20:00 6,4 C 87 % 1001,8 hPa 0,2 l/m 0,0 km/h (0 Bft) W-SW 247 4,4 C 6,4 C 8,0 km/h (2 Bft)
04.12.2021 20:00 6,4 C 87 % 1001,8 hPa 0,0 l/m 0,0 km/h (0 Bft) W-SW 247 4,4 C 6,4 C 8,0 km/h (2 Bft)
04.12.2021 18:00 6,2 C 89 % 1002,0 hPa 2,0 l/m 0,0 km/h (0 Bft) SW 225 4,5 C 6,2 C 8,0 km/h (2 Bft)
04.12.2021 18:00 6,2 C 89 % 1002,0 hPa 0,0 l/m 0,0 km/h (0 Bft) SW 225 4,5 C 6,2 C 8,0 km/h (2 Bft)
04.12.2021 16:00 2,7 C 91 % 1002,0 hPa 0,2 l/m 0,0 km/h (0 Bft) SW 225 1,4 C 2,7 C 1,6 km/h (1 Bft)
04.12.2021 16:00 2,7 C 91 % 1002,0 hPa 0,0 l/m 0,0 km/h (0 Bft) SW 225 1,4 C 2,7 C 1,6 km/h (1 Bft)
04.12.2021 14:00 2,7 C 91 % 1002,4 hPa 1,0 l/m 0,0 km/h (0 Bft) W-SW 247 1,4 C 2,7 C 1,6 km/h (1 Bft)
04.12.2021 14:00 2,7 C 91 % 1002,4 hPa 0,0 l/m 0,0 km/h (0 Bft) W-SW 247 1,4 C 2,7 C 1,6 km/h (1 Bft)
04.12.2021 12:00 1,3 C 90 % 1003,3 hPa 0,0 l/m 0,0 km/h (0 Bft) W-SW 247 -0,2 C 1,3 C 1,6 km/h (1 Bft)
_ Min-Zeit 08:00 22:00 20:00 - 12:00 - - 08:00 08:00 12:00
Minimum _ 0,4 C 84 % 1001,8 hPa - 0,0 km/h (0 Bft) - - -0,8 C 0,6 C 1,6 km/h (1 Bft)
_ Max-Zeit 22:00 14:00 10:00 12:00 02:00 - - 18:00 20:00 02:00
Maximum _ 6,6 C 91 % 1006,9 hPa 3,0 l/m 1,6 km/h
W (1 Bft)
- - 4,5 C 6,4 C 11,3 km/h
W (2 Bft)
Durchschnitt _ 3,1 C 89 % 1004,4 hPa #13,4 l/m 0,1 km/h (0 Bft) W - 1,4 C 3,1 C 4,7 km/h (1 Bft)